sensor_id;sensor_type;location;lat;lon;timestamp;P1;durP1;ratioP1;P2;durP2;ratioP2
22166;SDS011;11249;52.468;13.776;2022-11-15T00:00:53;63.35;;;35.47;;
22166;SDS011;11249;52.468;13.776;2022-11-15T00:03:22;63.42;;;36.28;;
22166;SDS011;11249;52.468;13.776;2022-11-15T00:05:50;64.10;;;36.25;;
22166;SDS011;11249;52.468;13.776;2022-11-15T00:08:16;65.10;;;35.67;;
22166;SDS011;11249;52.468;13.776;2022-11-15T00:10:53;62.58;;;35.45;;
22166;SDS011;11249;52.468;13.776;2022-11-15T00:15:50;61.50;;;35.65;;
22166;SDS011;11249;52.468;13.776;2022-11-15T00:18:17;71.65;;;41.00;;
22166;SDS011;11249;52.468;13.776;2022-11-15T00:20:44;63.78;;;37.22;;
22166;SDS011;11249;52.468;13.776;2022-11-15T00:23:11;63.97;;;37.40;;
22166;SDS011;11249;52.468;13.776;2022-11-15T00:25:38;72.88;;;39.20;;
22166;SDS011;11249;52.468;13.776;2022-11-15T00:28:04;62.90;;;38.17;;
22166;SDS011;11249;52.468;13.776;2022-11-15T00:30:31;66.43;;;37.53;;
22166;SDS011;11249;52.468;13.776;2022-11-15T00:33:04;68.35;;;39.70;;
22166;SDS011;11249;52.468;13.776;2022-11-15T00:35:32;66.85;;;38.97;;
22166;SDS011;11249;52.468;13.776;2022-11-15T00:38:00;68.72;;;38.72;;
22166;SDS011;11249;52.468;13.776;2022-11-15T00:40:27;66.85;;;39.25;;
22166;SDS011;11249;52.468;13.776;2022-11-15T00:42:53;67.43;;;37.42;;
22166;SDS011;11249;52.468;13.776;2022-11-15T00:45:20;66.88;;;38.42;;
22166;SDS011;11249;52.468;13.776;2022-11-15T00:47:47;67.70;;;38.97;;
22166;SDS011;11249;52.468;13.776;2022-11-15T00:50:14;65.43;;;37.08;;
22166;SDS011;11249;52.468;13.776;2022-11-15T00:52:40;66.30;;;38.28;;
22166;SDS011;11249;52.468;13.776;2022-11-15T00:55:09;60.55;;;36.22;;
22166;SDS011;11249;52.468;13.776;2022-11-15T00:57:41;61.42;;;37.35;;
22166;SDS011;11249;52.468;13.776;2022-11-15T01:00:07;64.05;;;35.55;;
22166;SDS011;11249;52.468;13.776;2022-11-15T01:02:35;59.72;;;36.25;;
22166;SDS011;11249;52.468;13.776;2022-11-15T01:05:02;59.63;;;36.38;;
22166;SDS011;11249;52.468;13.776;2022-11-15T01:07:28;62.15;;;36.45;;
22166;SDS011;11249;52.468;13.776;2022-11-15T01:09:55;58.70;;;35.22;;
22166;SDS011;11249;52.468;13.776;2022-11-15T01:12:22;61.10;;;36.55;;
22166;SDS011;11249;52.468;13.776;2022-11-15T01:14:49;59.97;;;36.08;;
22166;SDS011;11249;52.468;13.776;2022-11-15T01:17:15;65.47;;;39.72;;
22166;SDS011;11249;52.468;13.776;2022-11-15T01:19:42;67.32;;;39.97;;
22166;SDS011;11249;52.468;13.776;2022-11-15T01:22:09;65.13;;;39.13;;
22166;SDS011;11249;52.468;13.776;2022-11-15T01:24:35;63.08;;;37.42;;
22166;SDS011;11249;52.468;13.776;2022-11-15T01:27:02;66.25;;;36.90;;
22166;SDS011;11249;52.468;13.776;2022-11-15T01:29:29;63.20;;;37.38;;
22166;SDS011;11249;52.468;13.776;2022-11-15T01:31:55;60.50;;;35.97;;
22166;SDS011;11249;52.468;13.776;2022-11-15T01:34:22;60.70;;;36.55;;
22166;SDS011;11249;52.468;13.776;2022-11-15T01:36:49;60.20;;;37.67;;
22166;SDS011;11249;52.468;13.776;2022-11-15T01:39:15;58.15;;;36.08;;
22166;SDS011;11249;52.468;13.776;2022-11-15T01:41:42;58.35;;;36.35;;
22166;SDS011;11249;52.468;13.776;2022-11-15T01:47:02;62.40;;;38.00;;
22166;SDS011;11249;52.468;13.776;2022-11-15T01:49:33;55.70;;;34.03;;
22166;SDS011;11249;52.468;13.776;2022-11-15T01:52:05;58.65;;;35.35;;
22166;SDS011;11249;52.468;13.776;2022-11-15T01:54:36;63.25;;;36.53;;
22166;SDS011;11249;52.468;13.776;2022-11-15T01:57:09;56.88;;;34.60;;
22166;SDS011;11249;52.468;13.776;2022-11-15T01:59:38;61.83;;;35.13;;
22166;SDS011;11249;52.468;13.776;2022-11-15T02:02:08;63.75;;;38.33;;
22166;SDS011;11249;52.468;13.776;2022-11-15T02:04:36;62.45;;;34.55;;
22166;SDS011;11249;52.468;13.776;2022-11-15T02:07:06;63.88;;;37.85;;
22166;SDS011;11249;52.468;13.776;2022-11-15T02:09:36;64.60;;;37.63;;
22166;SDS011;11249;52.468;13.776;2022-11-15T02:12:03;67.80;;;38.13;;
22166;SDS011;11249;52.468;13.776;2022-11-15T02:14:31;59.72;;;36.53;;
22166;SDS011;11249;52.468;13.776;2022-11-15T02:17:12;61.88;;;36.10;;
22166;SDS011;11249;52.468;13.776;2022-11-15T02:20:03;66.78;;;38.53;;
22166;SDS011;11249;52.468;13.776;2022-11-15T02:31:34;61.70;;;36.25;;
22166;SDS011;11249;52.468;13.776;2022-11-15T02:37:15;67.78;;;38.45;;
22166;SDS011;11249;52.468;13.776;2022-11-15T02:40:31;71.82;;;39.65;;
22166;SDS011;11249;52.468;13.776;2022-11-15T02:43:00;65.30;;;39.80;;
22166;SDS011;11249;52.468;13.776;2022-11-15T02:45:55;65.00;;;37.20;;
22166;SDS011;11249;52.468;13.776;2022-11-15T02:48:37;71.75;;;40.17;;
22166;SDS011;11249;52.468;13.776;2022-11-15T02:51:05;68.90;;;38.38;;
22166;SDS011;11249;52.468;13.776;2022-11-15T02:53:32;71.47;;;42.03;;
22166;SDS011;11249;52.468;13.776;2022-11-15T02:55:59;74.80;;;41.38;;
22166;SDS011;11249;52.468;13.776;2022-11-15T02:58:38;83.95;;;44.72;;
22166;SDS011;11249;52.468;13.776;2022-11-15T03:01:39;90.22;;;47.03;;
22166;SDS011;11249;52.468;13.776;2022-11-15T03:04:16;81.93;;;44.10;;
22166;SDS011;11249;52.468;13.776;2022-11-15T03:06:58;74.93;;;42.78;;
22166;SDS011;11249;52.468;13.776;2022-11-15T03:09:42;73.53;;;40.92;;
22166;SDS011;11249;52.468;13.776;2022-11-15T03:19:57;60.92;;;36.58;;
22166;SDS011;11249;52.468;13.776;2022-11-15T03:22:25;66.78;;;38.13;;
22166;SDS011;11249;52.468;13.776;2022-11-15T03:24:58;65.40;;;37.78;;
22166;SDS011;11249;52.468;13.776;2022-11-15T03:27:31;67.40;;;38.97;;
22166;SDS011;11249;52.468;13.776;2022-11-15T03:30:04;66.10;;;41.15;;
22166;SDS011;11249;52.468;13.776;2022-11-15T03:32:53;60.30;;;37.70;;
22166;SDS011;11249;52.468;13.776;2022-11-15T03:35:23;69.80;;;36.80;;
22166;SDS011;11249;52.468;13.776;2022-11-15T03:38:17;61.42;;;36.90;;
22166;SDS011;11249;52.468;13.776;2022-11-15T03:40:51;68.80;;;38.67;;
22166;SDS011;11249;52.468;13.776;2022-11-15T03:46:32;66.03;;;37.88;;
22166;SDS011;11249;52.468;13.776;2022-11-15T03:49:09;65.97;;;36.92;;
22166;SDS011;11249;52.468;13.776;2022-11-15T03:51:39;60.65;;;35.33;;
22166;SDS011;11249;52.468;13.776;2022-11-15T03:54:06;70.43;;;38.63;;
22166;SDS011;11249;52.468;13.776;2022-11-15T03:56:33;65.63;;;37.25;;
22166;SDS011;11249;52.468;13.776;2022-11-15T03:58:59;67.55;;;39.70;;
22166;SDS011;11249;52.468;13.776;2022-11-15T04:01:26;65.50;;;38.10;;
22166;SDS011;11249;52.468;13.776;2022-11-15T04:03:53;65.03;;;38.08;;
22166;SDS011;11249;52.468;13.776;2022-11-15T04:06:19;67.20;;;38.80;;
22166;SDS011;11249;52.468;13.776;2022-11-15T04:08:46;67.15;;;36.75;;
22166;SDS011;11249;52.468;13.776;2022-11-15T04:11:12;61.95;;;36.97;;
22166;SDS011;11249;52.468;13.776;2022-11-15T04:13:39;61.08;;;36.58;;
22166;SDS011;11249;52.468;13.776;2022-11-15T04:16:06;65.63;;;37.75;;
22166;SDS011;11249;52.468;13.776;2022-11-15T04:18:32;59.30;;;35.92;;
22166;SDS011;11249;52.468;13.776;2022-11-15T04:20:59;64.05;;;36.63;;
22166;SDS011;11249;52.468;13.776;2022-11-15T04:23:45;63.67;;;36.13;;
22166;SDS011;11249;52.468;13.776;2022-11-15T04:26:18;56.50;;;34.47;;
22166;SDS011;11249;52.468;13.776;2022-11-15T04:28:47;53.28;;;33.38;;
22166;SDS011;11249;52.468;13.776;2022-11-15T04:31:32;57.58;;;35.42;;
22166;SDS011;11249;52.468;13.776;2022-11-15T04:33:59;57.03;;;34.75;;
22166;SDS011;11249;52.468;13.776;2022-11-15T04:36:26;59.15;;;34.47;;
22166;SDS011;11249;52.468;13.776;2022-11-15T04:39:11;57.22;;;34.08;;
22166;SDS011;11249;52.468;13.776;2022-11-15T04:41:38;55.80;;;33.58;;
22166;SDS011;11249;52.468;13.776;2022-11-15T04:44:04;53.80;;;33.22;;
22166;SDS011;11249;52.468;13.776;2022-11-15T04:46:31;58.05;;;34.80;;
22166;SDS011;11249;52.468;13.776;2022-11-15T04:48:57;63.47;;;37.53;;
22166;SDS011;11249;52.468;13.776;2022-11-15T04:51:24;54.95;;;33.28;;
22166;SDS011;11249;52.468;13.776;2022-11-15T04:53:51;51.22;;;31.98;;
22166;SDS011;11249;52.468;13.776;2022-11-15T04:56:18;57.08;;;34.60;;
22166;SDS011;11249;52.468;13.776;2022-11-15T04:58:48;56.55;;;33.92;;
22166;SDS011;11249;52.468;13.776;2022-11-15T05:01:15;62.47;;;34.88;;
22166;SDS011;11249;52.468;13.776;2022-11-15T05:03:42;57.92;;;33.50;;
22166;SDS011;11249;52.468;13.776;2022-11-15T05:06:28;61.92;;;35.20;;
22166;SDS011;11249;52.468;13.776;2022-11-15T05:08:55;57.63;;;34.20;;
22166;SDS011;11249;52.468;13.776;2022-11-15T05:11:22;65.72;;;36.38;;
22166;SDS011;11249;52.468;13.776;2022-11-15T05:13:50;61.22;;;35.90;;
22166;SDS011;11249;52.468;13.776;2022-11-15T05:16:16;65.70;;;36.92;;
22166;SDS011;11249;52.468;13.776;2022-11-15T05:18:43;74.70;;;40.00;;
22166;SDS011;11249;52.468;13.776;2022-11-15T05:21:11;79.18;;;42.45;;
22166;SDS011;11249;52.468;13.776;2022-11-15T05:23:39;68.57;;;37.67;;
22166;SDS011;11249;52.468;13.776;2022-11-15T05:26:06;77.25;;;40.63;;
22166;SDS011;11249;52.468;13.776;2022-11-15T05:28:34;76.35;;;40.15;;
22166;SDS011;11249;52.468;13.776;2022-11-15T05:31:03;76.05;;;42.75;;
22166;SDS011;11249;52.468;13.776;2022-11-15T05:33:30;74.70;;;42.00;;
22166;SDS011;11249;52.468;13.776;2022-11-15T05:36:04;81.70;;;43.88;;
22166;SDS011;11249;52.468;13.776;2022-11-15T05:38:35;77.90;;;43.95;;
22166;SDS011;11249;52.468;13.776;2022-11-15T05:41:02;82.55;;;41.83;;
22166;SDS011;11249;52.468;13.776;2022-11-15T05:43:31;74.60;;;40.17;;
22166;SDS011;11249;52.468;13.776;2022-11-15T05:46:01;69.65;;;40.15;;
22166;SDS011;11249;52.468;13.776;2022-11-15T05:48:30;82.28;;;43.35;;
22166;SDS011;11249;52.468;13.776;2022-11-15T05:50:58;73.45;;;40.47;;
22166;SDS011;11249;52.468;13.776;2022-11-15T05:53:26;75.25;;;40.65;;
22166;SDS011;11249;52.468;13.776;2022-11-15T05:55:53;74.03;;;42.25;;
22166;SDS011;11249;52.468;13.776;2022-11-15T05:58:19;63.08;;;37.45;;
22166;SDS011;11249;52.468;13.776;2022-11-15T06:00:46;67.63;;;39.05;;
22166;SDS011;11249;52.468;13.776;2022-11-15T06:03:13;62.42;;;37.15;;
22166;SDS011;11249;52.468;13.776;2022-11-15T06:05:40;63.00;;;36.38;;
22166;SDS011;11249;52.468;13.776;2022-11-15T06:08:07;55.92;;;33.90;;
22166;SDS011;11249;52.468;13.776;2022-11-15T06:10:33;55.03;;;34.10;;
22166;SDS011;11249;52.468;13.776;2022-11-15T06:13:04;55.55;;;33.47;;
22166;SDS011;11249;52.468;13.776;2022-11-15T06:15:34;53.45;;;33.50;;
22166;SDS011;11249;52.468;13.776;2022-11-15T06:18:01;51.40;;;32.83;;
22166;SDS011;11249;52.468;13.776;2022-11-15T06:20:28;48.47;;;30.65;;
22166;SDS011;11249;52.468;13.776;2022-11-15T06:22:56;49.55;;;31.60;;
22166;SDS011;11249;52.468;13.776;2022-11-15T06:25:31;54.15;;;31.52;;
22166;SDS011;11249;52.468;13.776;2022-11-15T06:27:58;52.22;;;32.30;;
22166;SDS011;11249;52.468;13.776;2022-11-15T06:30:25;49.33;;;31.15;;
22166;SDS011;11249;52.468;13.776;2022-11-15T06:32:59;52.63;;;29.98;;
22166;SDS011;11249;52.468;13.776;2022-11-15T06:35:30;47.30;;;30.08;;
22166;SDS011;11249;52.468;13.776;2022-11-15T06:38:03;45.65;;;29.60;;
22166;SDS011;11249;52.468;13.776;2022-11-15T06:40:35;54.95;;;31.27;;
22166;SDS011;11249;52.468;13.776;2022-11-15T06:43:03;54.22;;;31.38;;
22166;SDS011;11249;52.468;13.776;2022-11-15T06:45:31;57.33;;;32.33;;
22166;SDS011;11249;52.468;13.776;2022-11-15T06:47:58;54.47;;;32.90;;
22166;SDS011;11249;52.468;13.776;2022-11-15T06:50:25;52.80;;;31.20;;
22166;SDS011;11249;52.468;13.776;2022-11-15T06:52:51;50.72;;;32.55;;
22166;SDS011;11249;52.468;13.776;2022-11-15T06:55:18;52.00;;;31.65;;
22166;SDS011;11249;52.468;13.776;2022-11-15T06:57:49;51.45;;;30.73;;
22166;SDS011;11249;52.468;13.776;2022-11-15T07:00:17;51.75;;;31.80;;
22166;SDS011;11249;52.468;13.776;2022-11-15T07:02:46;51.97;;;31.50;;
22166;SDS011;11249;52.468;13.776;2022-11-15T07:05:13;52.30;;;31.88;;
22166;SDS011;11249;52.468;13.776;2022-11-15T07:07:41;51.35;;;31.25;;
22166;SDS011;11249;52.468;13.776;2022-11-15T07:10:07;50.67;;;31.33;;
22166;SDS011;11249;52.468;13.776;2022-11-15T07:12:34;57.10;;;32.08;;
22166;SDS011;11249;52.468;13.776;2022-11-15T07:15:01;48.85;;;31.08;;
22166;SDS011;11249;52.468;13.776;2022-11-15T07:17:28;52.60;;;31.33;;
22166;SDS011;11249;52.468;13.776;2022-11-15T07:19:54;50.33;;;31.33;;
22166;SDS011;11249;52.468;13.776;2022-11-15T07:22:21;58.05;;;33.38;;
22166;SDS011;11249;52.468;13.776;2022-11-15T07:24:48;68.68;;;37.58;;
22166;SDS011;11249;52.468;13.776;2022-11-15T07:27:14;72.72;;;37.80;;
22166;SDS011;11249;52.468;13.776;2022-11-15T07:29:41;72.05;;;38.20;;
22166;SDS011;11249;52.468;13.776;2022-11-15T07:32:08;70.70;;;38.38;;
22166;SDS011;11249;52.468;13.776;2022-11-15T07:34:35;70.85;;;36.80;;
22166;SDS011;11249;52.468;13.776;2022-11-15T07:37:02;64.07;;;36.47;;
22166;SDS011;11249;52.468;13.776;2022-11-15T07:39:28;72.70;;;40.65;;
22166;SDS011;11249;52.468;13.776;2022-11-15T07:41:55;79.50;;;40.33;;
22166;SDS011;11249;52.468;13.776;2022-11-15T07:44:42;63.45;;;33.92;;
22166;SDS011;11249;52.468;13.776;2022-11-15T07:47:08;75.25;;;41.33;;
22166;SDS011;11249;52.468;13.776;2022-11-15T07:49:35;71.18;;;38.53;;
22166;SDS011;11249;52.468;13.776;2022-11-15T07:52:02;79.18;;;41.03;;
22166;SDS011;11249;52.468;13.776;2022-11-15T07:54:28;61.67;;;37.03;;
22166;SDS011;11249;52.468;13.776;2022-11-15T07:56:55;76.43;;;40.53;;
22166;SDS011;11249;52.468;13.776;2022-11-15T07:59:25;84.95;;;43.42;;
22166;SDS011;11249;52.468;13.776;2022-11-15T08:01:51;72.80;;;41.03;;
22166;SDS011;11249;52.468;13.776;2022-11-15T08:04:18;76.43;;;40.70;;
22166;SDS011;11249;52.468;13.776;2022-11-15T08:06:45;79.88;;;43.63;;
22166;SDS011;11249;52.468;13.776;2022-11-15T08:09:12;80.63;;;45.90;;
22166;SDS011;11249;52.468;13.776;2022-11-15T08:11:38;84.25;;;44.72;;
22166;SDS011;11249;52.468;13.776;2022-11-15T08:14:05;79.57;;;43.25;;
22166;SDS011;11249;52.468;13.776;2022-11-15T08:16:32;98.43;;;49.20;;
22166;SDS011;11249;52.468;13.776;2022-11-15T08:18:59;89.28;;;46.00;;
22166;SDS011;11249;52.468;13.776;2022-11-15T08:21:26;90.53;;;45.83;;
22166;SDS011;11249;52.468;13.776;2022-11-15T08:23:53;92.53;;;48.13;;
22166;SDS011;11249;52.468;13.776;2022-11-15T08:26:19;98.25;;;49.65;;
22166;SDS011;11249;52.468;13.776;2022-11-15T08:28:46;101.95;;;50.22;;
22166;SDS011;11249;52.468;13.776;2022-11-15T08:31:14;94.18;;;48.30;;
22166;SDS011;11249;52.468;13.776;2022-11-15T08:33:43;109.70;;;51.72;;
22166;SDS011;11249;52.468;13.776;2022-11-15T08:36:12;85.78;;;45.50;;
22166;SDS011;11249;52.468;13.776;2022-11-15T08:38:40;103.15;;;51.88;;
22166;SDS011;11249;52.468;13.776;2022-11-15T08:41:12;101.55;;;48.70;;
22166;SDS011;11249;52.468;13.776;2022-11-15T08:43:41;98.85;;;49.47;;
22166;SDS011;11249;52.468;13.776;2022-11-15T08:46:08;100.20;;;49.17;;
22166;SDS011;11249;52.468;13.776;2022-11-15T08:48:38;101.70;;;50.78;;
22166;SDS011;11249;52.468;13.776;2022-11-15T08:51:05;88.43;;;47.65;;
22166;SDS011;11249;52.468;13.776;2022-11-15T08:53:32;97.40;;;49.13;;
22166;SDS011;11249;52.468;13.776;2022-11-15T08:56:00;86.85;;;47.78;;
22166;SDS011;11249;52.468;13.776;2022-11-15T08:58:26;95.38;;;49.47;;
22166;SDS011;11249;52.468;13.776;2022-11-15T09:00:53;97.82;;;49.67;;
22166;SDS011;11249;52.468;13.776;2022-11-15T09:03:20;89.05;;;47.83;;
22166;SDS011;11249;52.468;13.776;2022-11-15T09:05:47;79.40;;;45.60;;
22166;SDS011;11249;52.468;13.776;2022-11-15T09:08:14;85.68;;;46.75;;
22166;SDS011;11249;52.468;13.776;2022-11-15T09:11:07;81.22;;;45.80;;
22166;SDS011;11249;52.468;13.776;2022-11-15T09:13:35;77.68;;;43.83;;
22166;SDS011;11249;52.468;13.776;2022-11-15T09:16:05;78.30;;;44.40;;
22166;SDS011;11249;52.468;13.776;2022-11-15T09:18:32;78.97;;;44.47;;
22166;SDS011;11249;52.468;13.776;2022-11-15T09:21:00;76.10;;;43.67;;
22166;SDS011;11249;52.468;13.776;2022-11-15T09:23:28;72.72;;;42.28;;
22166;SDS011;11249;52.468;13.776;2022-11-15T09:25:59;73.03;;;43.15;;
22166;SDS011;11249;52.468;13.776;2022-11-15T09:28:27;69.90;;;41.33;;
22166;SDS011;11249;52.468;13.776;2022-11-15T09:30:56;70.63;;;40.45;;
22166;SDS011;11249;52.468;13.776;2022-11-15T09:33:27;69.75;;;40.92;;
22166;SDS011;11249;52.468;13.776;2022-11-15T09:35:59;65.45;;;41.20;;
22166;SDS011;11249;52.468;13.776;2022-11-15T09:38:27;61.03;;;38.08;;
22166;SDS011;11249;52.468;13.776;2022-11-15T09:43:44;64.70;;;37.53;;
22166;SDS011;11249;52.468;13.776;2022-11-15T09:46:35;61.33;;;38.40;;
22166;SDS011;11249;52.468;13.776;2022-11-15T09:49:08;55.13;;;36.40;;
22166;SDS011;11249;52.468;13.776;2022-11-15T09:51:42;60.63;;;37.03;;
22166;SDS011;11249;52.468;13.776;2022-11-15T09:54:26;53.95;;;35.65;;
22166;SDS011;11249;52.468;13.776;2022-11-15T10:00:08;55.22;;;34.95;;
22166;SDS011;11249;52.468;13.776;2022-11-15T10:03:14;52.00;;;32.95;;
22166;SDS011;11249;52.468;13.776;2022-11-15T10:05:45;55.45;;;34.28;;
22166;SDS011;11249;52.468;13.776;2022-11-15T10:08:28;49.25;;;33.05;;
22166;SDS011;11249;52.468;13.776;2022-11-15T10:11:04;46.13;;;31.25;;
22166;SDS011;11249;52.468;13.776;2022-11-15T10:13:55;47.95;;;32.33;;
22166;SDS011;11249;52.468;13.776;2022-11-15T10:19:39;46.05;;;30.98;;
22166;SDS011;11249;52.468;13.776;2022-11-15T10:28:21;40.30;;;27.38;;
22166;SDS011;11249;52.468;13.776;2022-11-15T10:30:44;42.63;;;28.80;;
22166;SDS011;11249;52.468;13.776;2022-11-15T10:44:41;38.80;;;26.45;;
22166;SDS011;11249;52.468;13.776;2022-11-15T10:49:25;37.97;;;28.17;;
22166;SDS011;11249;52.468;13.776;2022-11-15T10:52:13;37.95;;;26.05;;
22166;SDS011;11249;52.468;13.776;2022-11-15T10:54:43;37.30;;;25.83;;
22166;SDS011;11249;52.468;13.776;2022-11-15T10:57:17;38.40;;;25.50;;
22166;SDS011;11249;52.468;13.776;2022-11-15T10:59:47;35.25;;;25.23;;
22166;SDS011;11249;52.468;13.776;2022-11-15T11:02:30;32.33;;;24.38;;
22166;SDS011;11249;52.468;13.776;2022-11-15T11:05:29;31.77;;;22.55;;
22166;SDS011;11249;52.468;13.776;2022-11-15T11:10:55;31.95;;;21.88;;
22166;SDS011;11249;52.468;13.776;2022-11-15T11:13:28;27.67;;;21.38;;
22166;SDS011;11249;52.468;13.776;2022-11-15T11:19:02;28.52;;;22.17;;
22166;SDS011;11249;52.468;13.776;2022-11-15T11:21:38;28.75;;;21.15;;
22166;SDS011;11249;52.468;13.776;2022-11-15T11:24:21;26.00;;;19.55;;
22166;SDS011;11249;52.468;13.776;2022-11-15T11:30:14;28.20;;;18.27;;
22166;SDS011;11249;52.468;13.776;2022-11-15T11:33:11;22.02;;;17.95;;
22166;SDS011;11249;52.468;13.776;2022-11-15T11:36:05;22.77;;;16.90;;
22166;SDS011;11249;52.468;13.776;2022-11-15T11:38:56;24.80;;;17.25;;
22166;SDS011;11249;52.468;13.776;2022-11-15T11:47:01;20.20;;;16.17;;
22166;SDS011;11249;52.468;13.776;2022-11-15T11:49:46;25.40;;;18.35;;
22166;SDS011;11249;52.468;13.776;2022-11-15T11:54:55;24.90;;;16.73;;
22166;SDS011;11249;52.468;13.776;2022-11-15T12:00:38;25.02;;;17.48;;
22166;SDS011;11249;52.468;13.776;2022-11-15T12:03:11;24.17;;;17.63;;
22166;SDS011;11249;52.468;13.776;2022-11-15T12:05:58;23.67;;;16.80;;
22166;SDS011;11249;52.468;13.776;2022-11-15T12:08:48;21.40;;;16.55;;
22166;SDS011;11249;52.468;13.776;2022-11-15T12:11:23;20.00;;;14.90;;
22166;SDS011;11249;52.468;13.776;2022-11-15T12:17:12;20.73;;;14.80;;
22166;SDS011;11249;52.468;13.776;2022-11-15T12:19:40;19.40;;;16.13;;
22166;SDS011;11249;52.468;13.776;2022-11-15T12:22:28;21.35;;;15.00;;
22166;SDS011;11249;52.468;13.776;2022-11-15T12:25:15;18.88;;;14.57;;
22166;SDS011;11249;52.468;13.776;2022-11-15T12:27:50;23.25;;;15.30;;
22166;SDS011;11249;52.468;13.776;2022-11-15T12:30:27;21.48;;;15.13;;
22166;SDS011;11249;52.468;13.776;2022-11-15T12:33:15;18.67;;;14.15;;
22166;SDS011;11249;52.468;13.776;2022-11-15T12:36:05;17.17;;;13.85;;
22166;SDS011;11249;52.468;13.776;2022-11-15T12:39:02;15.27;;;12.95;;
22166;SDS011;11249;52.468;13.776;2022-11-15T12:44:11;19.15;;;14.93;;
22166;SDS011;11249;52.468;13.776;2022-11-15T13:02:22;18.45;;;12.93;;
22166;SDS011;11249;52.468;13.776;2022-11-15T13:10:29;15.02;;;13.45;;
22166;SDS011;11249;52.468;13.776;2022-11-15T13:13:01;18.13;;;13.65;;
22166;SDS011;11249;52.468;13.776;2022-11-15T13:15:31;19.95;;;13.63;;
22166;SDS011;11249;52.468;13.776;2022-11-15T13:20:49;21.98;;;15.18;;
22166;SDS011;11249;52.468;13.776;2022-11-15T13:23:16;17.88;;;13.93;;
22166;SDS011;11249;52.468;13.776;2022-11-15T13:28:27;19.45;;;14.40;;
22166;SDS011;11249;52.468;13.776;2022-11-15T13:34:14;19.70;;;14.40;;
22166;SDS011;11249;52.468;13.776;2022-11-15T13:39:47;17.80;;;13.85;;
22166;SDS011;11249;52.468;13.776;2022-11-15T13:42:15;19.10;;;14.75;;
22166;SDS011;11249;52.468;13.776;2022-11-15T13:44:57;17.63;;;14.57;;
22166;SDS011;11249;52.468;13.776;2022-11-15T13:47:29;15.15;;;12.50;;
22166;SDS011;11249;52.468;13.776;2022-11-15T13:49:58;23.27;;;14.57;;
22166;SDS011;11249;52.468;13.776;2022-11-15T13:52:27;20.33;;;15.13;;
22166;SDS011;11249;52.468;13.776;2022-11-15T13:55:04;19.63;;;14.52;;
22166;SDS011;11249;52.468;13.776;2022-11-15T13:57:41;18.45;;;13.63;;
22166;SDS011;11249;52.468;13.776;2022-11-15T14:03:04;17.60;;;14.00;;
22166;SDS011;11249;52.468;13.776;2022-11-15T14:05:34;20.45;;;13.25;;
22166;SDS011;11249;52.468;13.776;2022-11-15T14:08:12;16.00;;;12.98;;
22166;SDS011;11249;52.468;13.776;2022-11-15T14:11:05;16.00;;;12.25;;
22166;SDS011;11249;52.468;13.776;2022-11-15T14:13:41;17.40;;;13.18;;
22166;SDS011;11249;52.468;13.776;2022-11-15T14:18:49;15.25;;;12.05;;
22166;SDS011;11249;52.468;13.776;2022-11-15T14:21:17;14.48;;;12.48;;
22166;SDS011;11249;52.468;13.776;2022-11-15T14:23:46;17.08;;;12.15;;
22166;SDS011;11249;52.468;13.776;2022-11-15T14:26:31;13.48;;;12.07;;
22166;SDS011;11249;52.468;13.776;2022-11-15T14:32:17;16.23;;;12.48;;
22166;SDS011;11249;52.468;13.776;2022-11-15T14:34:49;17.02;;;12.38;;
22166;SDS011;11249;52.468;13.776;2022-11-15T14:37:22;16.27;;;12.00;;
22166;SDS011;11249;52.468;13.776;2022-11-15T14:39:50;15.35;;;11.82;;
22166;SDS011;11249;52.468;13.776;2022-11-15T14:42:18;17.60;;;13.95;;
22166;SDS011;11249;52.468;13.776;2022-11-15T14:44:46;16.00;;;12.07;;
22166;SDS011;11249;52.468;13.776;2022-11-15T14:47:12;14.85;;;12.32;;
22166;SDS011;11249;52.468;13.776;2022-11-15T14:49:39;16.65;;;13.02;;
22166;SDS011;11249;52.468;13.776;2022-11-15T14:54:58;17.50;;;13.45;;
22166;SDS011;11249;52.468;13.776;2022-11-15T14:57:25;21.27;;;14.50;;
22166;SDS011;11249;52.468;13.776;2022-11-15T14:59:52;21.83;;;15.07;;
22166;SDS011;11249;52.468;13.776;2022-11-15T15:02:20;21.20;;;14.50;;
22166;SDS011;11249;52.468;13.776;2022-11-15T15:04:52;24.52;;;15.00;;
22166;SDS011;11249;52.468;13.776;2022-11-15T15:07:19;23.70;;;17.45;;
22166;SDS011;11249;52.468;13.776;2022-11-15T15:09:46;32.10;;;25.02;;
22166;SDS011;11249;52.468;13.776;2022-11-15T15:12:17;36.00;;;25.75;;
22166;SDS011;11249;52.468;13.776;2022-11-15T15:14:45;43.45;;;28.73;;
22166;SDS011;11249;52.468;13.776;2022-11-15T15:17:14;37.85;;;27.63;;
22166;SDS011;11249;52.468;13.776;2022-11-15T15:19:41;35.15;;;26.02;;
22166;SDS011;11249;52.468;13.776;2022-11-15T15:22:14;46.00;;;27.05;;
22166;SDS011;11249;52.468;13.776;2022-11-15T15:24:43;45.03;;;30.48;;
22166;SDS011;11249;52.468;13.776;2022-11-15T15:27:11;42.33;;;30.15;;
22166;SDS011;11249;52.468;13.776;2022-11-15T15:29:38;43.03;;;30.80;;
22166;SDS011;11249;52.468;13.776;2022-11-15T15:32:05;47.60;;;32.50;;
22166;SDS011;11249;52.468;13.776;2022-11-15T15:34:32;48.35;;;33.38;;
22166;SDS011;11249;52.468;13.776;2022-11-15T15:39:59;53.13;;;35.72;;
22166;SDS011;11249;52.468;13.776;2022-11-15T15:42:25;52.38;;;38.10;;
22166;SDS011;11249;52.468;13.776;2022-11-15T15:44:52;48.58;;;36.67;;
22166;SDS011;11249;52.468;13.776;2022-11-15T15:47:22;45.70;;;32.88;;
22166;SDS011;11249;52.468;13.776;2022-11-15T15:49:49;53.83;;;35.65;;
22166;SDS011;11249;52.468;13.776;2022-11-15T15:52:16;44.40;;;33.00;;
22166;SDS011;11249;52.468;13.776;2022-11-15T15:54:43;45.00;;;31.95;;
22166;SDS011;11249;52.468;13.776;2022-11-15T15:57:13;47.53;;;33.13;;
22166;SDS011;11249;52.468;13.776;2022-11-15T15:59:40;44.28;;;31.25;;
22166;SDS011;11249;52.468;13.776;2022-11-15T16:02:13;53.67;;;36.78;;
22166;SDS011;11249;52.468;13.776;2022-11-15T16:04:40;49.75;;;32.38;;
22166;SDS011;11249;52.468;13.776;2022-11-15T16:07:12;56.85;;;38.92;;
22166;SDS011;11249;52.468;13.776;2022-11-15T16:09:45;57.17;;;39.95;;
22166;SDS011;11249;52.468;13.776;2022-11-15T16:12:30;55.35;;;38.45;;
22166;SDS011;11249;52.468;13.776;2022-11-15T16:15:00;56.80;;;39.95;;
22166;SDS011;11249;52.468;13.776;2022-11-15T16:17:29;59.28;;;41.03;;
22166;SDS011;11249;52.468;13.776;2022-11-15T16:19:59;57.95;;;39.53;;
22166;SDS011;11249;52.468;13.776;2022-11-15T16:22:26;59.45;;;40.17;;
22166;SDS011;11249;52.468;13.776;2022-11-15T16:24:55;54.40;;;38.40;;
22166;SDS011;11249;52.468;13.776;2022-11-15T16:27:22;56.22;;;40.65;;
22166;SDS011;11249;52.468;13.776;2022-11-15T16:29:49;59.33;;;41.78;;
22166;SDS011;11249;52.468;13.776;2022-11-15T16:32:15;61.97;;;42.75;;
22166;SDS011;11249;52.468;13.776;2022-11-15T16:34:42;62.38;;;41.72;;
22166;SDS011;11249;52.468;13.776;2022-11-15T16:37:21;67.90;;;44.47;;
22166;SDS011;11249;52.468;13.776;2022-11-15T16:39:48;63.17;;;42.50;;
22166;SDS011;11249;52.468;13.776;2022-11-15T16:42:15;62.17;;;42.40;;